Time;durP1;ratioP1;P1;durP2;ratioP2;P2;SDS_P1;SDS_P2;PMS_P1;PMS_P2;Temp;Humidity;BMP_temperature;BMP_pressure;BME280_temperature;BME280_humidity;BME280_pressure;Samples;Min_cycle;Max_cycle;Signal;HPM_P1;HPM_P2
2023/08/28 00:02:20;;;;;;;1.70;1.60;;;15.30;99.90;;;;;;5022887;28;20549;-51
2023/08/28 00:04:47;;;;;;;2.97;2.20;;;15.30;96.80;;;;;;5029977;28;20486;-53
2023/08/28 00:07:13;;;;;;;3.53;2.00;;;15.20;21.50;;;;;;5037722;28;20488;-53
2023/08/28 00:09:41;;;;;;;5.00;1.90;;;15.20;23.00;;;;;;5028216;28;20478;-53
2023/08/28 00:12:08;;;;;;;2.60;2.03;;;15.10;24.90;;;;;;5025983;28;20494;-51
2023/08/28 00:14:35;;;;;;;1.80;1.70;;;15.10;74.40;;;;;;5022359;28;20462;-51
2023/08/28 00:17:04;;;;;;;2.10;1.67;;;15.10;23.80;;;;;;5030061;28;20568;-54
2023/08/28 00:19:31;;;;;;;1.40;1.30;;;15.00;26.00;;;;;;5028069;28;20485;-52
2023/08/28 00:21:58;;;;;;;2.40;1.47;;;15.00;34.90;;;;;;5025675;28;20520;-53
2023/08/28 00:24:24;;;;;;;1.60;1.50;;;15.00;35.80;;;;;;5027895;28;20514;-52
2023/08/28 00:26:52;;;;;;;1.50;1.40;;;15.00;31.50;;;;;;5035664;28;20482;-53
2023/08/28 00:29:19;;;;;;;1.50;1.40;;;14.90;26.70;;;;;;5032697;28;20941;-52
2023/08/28 00:31:45;;;;;;;1.37;1.27;;;14.80;34.70;;;;;;5029126;28;20459;-52
2023/08/28 00:34:12;;;;;;;1.30;1.20;;;14.80;30.10;;;;;;5035936;28;20483;-51
2023/08/28 00:36:38;;;;;;;2.10;1.40;;;14.70;30.20;;;;;;5026698;28;20540;-52
2023/08/28 00:39:05;;;;;;;1.50;1.40;;;14.60;26.10;;;;;;5035221;28;20825;-52
2023/08/28 00:41:33;;;;;;;1.20;1.10;;;14.60;86.10;;;;;;5034684;28;20478;-52
2023/08/28 00:44:01;;;;;;;1.40;1.17;;;14.50;93.30;;;;;;5038169;28;20483;-53
2023/08/28 00:46:28;;;;;;;1.40;1.30;;;14.40;99.90;;;;;;5037913;28;20552;-53
2023/08/28 00:48:55;;;;;;;1.53;1.27;;;14.30;99.90;;;;;;5029882;28;20521;-52
2023/08/28 00:51:21;;;;;;;1.17;1.13;;;14.30;99.90;;;;;;5027485;28;20552;-53
2023/08/28 00:53:48;;;;;;;1.37;1.27;;;14.30;99.90;;;;;;5028677;28;20467;-52
2023/08/28 00:56:15;;;;;;;1.50;1.40;;;14.30;99.90;;;;;;5031230;28;20513;-52
2023/08/28 00:58:41;;;;;;;3.63;2.00;;;14.20;82.90;;;;;;5040249;28;20491;-51
2023/08/28 01:01:09;;;;;;;0.83;0.83;;;14.20;24.60;;;;;;5029157;28;20500;-51
2023/08/28 01:03:36;;;;;;;4.30;1.47;;;14.20;25.20;;;;;;5025001;28;20540;-52
2023/08/28 01:06:12;;;;;;;1.43;1.00;;;14.10;27.50;;;;;;5017431;28;20518;-52
2023/08/28 01:08:46;;;;;;;4.60;1.20;;;14.20;27.30;;;;;;5019614;28;20508;-52
2023/08/28 01:11:19;;;;;;;1.33;1.20;;;14.10;29.60;;;;;;5030887;28;20454;-52
2023/08/28 01:13:52;;;;;;;1.07;1.07;;;14.10;28.10;;;;;;5030564;28;20508;-52
2023/08/28 01:16:23;;;;;;;1.37;1.27;;;14.00;26.90;;;;;;5025590;28;21137;-52
2023/08/28 01:18:49;;;;;;;6.40;1.10;;;14.00;22.40;;;;;;5032608;28;20462;-52
2023/08/28 01:21:17;;;;;;;1.60;1.20;;;13.90;22.50;;;;;;5029604;28;21167;-52
2023/08/28 01:23:55;;;;;;;2.40;1.20;;;13.90;23.30;;;;;;5025346;28;20212;-52
2023/08/28 01:26:24;;;;;;;1.20;1.17;;;13.80;25.20;;;;;;5041204;28;20886;-52
2023/08/28 01:28:51;;;;;;;1.27;1.00;;;13.80;27.10;;;;;;5031938;28;20467;-51
2023/08/28 01:31:17;;;;;;;1.33;1.20;;;13.80;20.70;;;;;;5027444;28;20458;-52
2023/08/28 01:33:45;;;;;;;3.60;1.20;;;13.80;20.60;;;;;;5018558;28;20928;-51
2023/08/28 01:36:17;;;;;;;1.30;1.20;;;13.70;26.90;;;;;;5028586;28;20485;-52
2023/08/28 01:38:50;;;;;;;3.70;1.00;;;13.70;22.00;;;;;;5028787;28;20461;-52
2023/08/28 01:41:20;;;;;;;1.00;0.90;;;13.60;25.40;;;;;;5045473;28;20545;-51
2023/08/28 01:43:50;;;;;;;1.90;1.00;;;13.60;24.00;;;;;;5030293;28;20482;-51
2023/08/28 01:46:18;;;;;;;1.10;1.00;;;13.50;99.90;;;;;;5033812;28;20512;-51
2023/08/28 01:48:51;;;;;;;1.10;1.00;;;13.50;93.60;;;;;;5043788;28;20454;-51
2023/08/28 01:51:17;;;;;;;1.00;1.00;;;13.30;84.40;;;;;;5021683;28;20474;-53
2023/08/28 01:53:44;;;;;;;1.13;1.03;;;13.30;99.90;;;;;;5034016;28;20450;-52
2023/08/28 01:56:20;;;;;;;2.20;1.00;;;13.20;99.90;;;;;;5041741;28;20534;-51
2023/08/28 01:58:50;;;;;;;0.87;0.87;;;13.20;99.90;;;;;;5027142;28;20541;-51
2023/08/28 02:01:17;;;;;;;1.03;1.00;;;13.10;99.90;;;;;;5029302;28;20462;-53
2023/08/28 02:03:44;;;;;;;1.10;0.87;;;13.10;99.90;;;;;;5035616;28;20477;-51
2023/08/28 02:06:11;;;;;;;1.20;1.07;;;13.00;99.90;;;;;;5039656;28;20514;-52
2023/08/28 02:08:38;;;;;;;3.43;1.20;;;13.00;99.90;;;;;;5029657;28;20929;-52
2023/08/28 02:11:05;;;;;;;4.73;1.30;;;12.90;99.90;;;;;;5032424;28;20495;-51
2023/08/28 02:13:32;;;;;;;3.37;1.40;;;12.90;99.90;;;;;;5032730;28;20466;-54
2023/08/28 02:16:00;;;;;;;3.50;1.07;;;12.90;99.90;;;;;;5029235;28;20891;-53
2023/08/28 02:18:26;;;;;;;2.50;1.23;;;12.80;99.90;;;;;;5030946;28;20483;-52
2023/08/28 02:20:53;;;;;;;4.57;1.20;;;12.80;99.90;;;;;;5028791;28;20458;-52
2023/08/28 02:23:20;;;;;;;1.67;0.90;;;12.70;99.90;;;;;;5033441;28;20522;-52
2023/08/28 02:25:48;;;;;;;1.37;1.27;;;12.70;99.90;;;;;;5033416;28;20484;-53
2023/08/28 02:28:15;;;;;;;1.37;1.10;;;12.60;99.90;;;;;;5030053;28;20810;-52
2023/08/28 02:30:41;;;;;;;2.20;1.27;;;12.60;99.90;;;;;;5038170;28;20455;-51
2023/08/28 02:33:08;;;;;;;2.30;1.17;;;12.50;99.90;;;;;;5037990;28;21097;-52
2023/08/28 02:35:35;;;;;;;2.30;1.10;;;12.50;99.90;;;;;;5028994;28;20514;-52
2023/08/28 02:38:01;;;;;;;1.30;1.20;;;12.50;99.90;;;;;;5033123;28;20462;-53
2023/08/28 02:40:28;;;;;;;2.47;1.27;;;12.40;99.90;;;;;;5043017;28;20453;-53
2023/08/28 02:42:55;;;;;;;2.60;1.20;;;12.40;99.90;;;;;;5034529;28;20964;-52
2023/08/28 02:45:21;;;;;;;2.03;1.20;;;12.40;99.90;;;;;;5033173;28;20492;-53
2023/08/28 02:47:48;;;;;;;1.47;1.20;;;12.40;99.90;;;;;;5045048;28;20519;-52
2023/08/28 02:50:16;;;;;;;1.53;1.43;;;12.30;99.90;;;;;;5034415;28;20524;-53
2023/08/28 02:52:43;;;;;;;1.53;1.30;;;12.30;99.90;;;;;;5030372;28;20521;-53
2023/08/28 02:55:09;;;;;;;3.70;1.43;;;12.30;99.90;;;;;;5029978;28;20996;-52
2023/08/28 02:57:36;;;;;;;4.60;1.40;;;12.30;99.90;;;;;;5030303;28;20828;-54
2023/08/28 03:00:03;;;;;;;1.43;1.33;;;12.20;99.90;;;;;;5030088;28;20455;-52
2023/08/28 03:02:29;;;;;;;1.30;1.20;;;12.20;99.90;;;;;;5024828;28;20569;-53
2023/08/28 03:04:56;;;;;;;2.73;1.10;;;12.20;99.90;;;;;;5017050;28;20541;-51
2023/08/28 03:07:24;;;;;;;12.70;1.70;;;12.20;99.90;;;;;;5035823;28;20512;-54
2023/08/28 03:09:51;;;;;;;1.53;1.20;;;12.10;99.90;;;;;;5027433;28;20493;-52
2023/08/28 03:12:17;;;;;;;1.67;1.43;;;12.10;99.90;;;;;;5029412;28;20513;-52
2023/08/28 03:14:44;;;;;;;2.50;1.50;;;12.10;99.90;;;;;;5029370;28;21011;-52
2023/08/28 03:17:10;;;;;;;1.70;1.40;;;12.10;99.90;;;;;;5018701;28;20529;-51
2023/08/28 03:19:37;;;;;;;6.83;1.73;;;12.10;99.90;;;;;;5028958;28;20837;-53
2023/08/28 03:22:04;;;;;;;1.97;1.30;;;12.10;99.90;;;;;;5023130;28;20462;-51
2023/08/28 03:24:32;;;;;;;1.13;1.13;;;12.10;99.90;;;;;;5019613;28;20487;-53
2023/08/28 03:26:58;;;;;;;2.40;1.13;;;12.10;99.90;;;;;;5027028;28;21055;-52
2023/08/28 03:29:25;;;;;;;1.40;1.30;;;12.10;99.90;;;;;;5026984;28;20489;-54
2023/08/28 03:31:51;;;;;;;4.87;1.60;;;12.20;99.90;;;;;;5019083;28;20529;-53
2023/08/28 03:34:18;;;;;;;3.27;1.80;;;12.20;99.90;;;;;;5025415;28;20810;-53
2023/08/28 03:36:44;;;;;;;1.73;1.47;;;12.20;99.90;;;;;;5019879;28;20490;-53
2023/08/28 03:39:11;;;;;;;2.43;1.50;;;12.20;99.90;;;;;;5028374;28;20529;-53
2023/08/28 03:41:39;;;;;;;1.70;1.60;;;12.20;99.90;;;;;;5027765;28;20466;-52
2023/08/28 03:44:06;;;;;;;1.47;1.37;;;12.10;99.90;;;;;;5027203;28;20948;-52
2023/08/28 03:46:32;;;;;;;1.40;1.30;;;12.10;99.90;;;;;;5021395;28;20541;-54
2023/08/28 03:48:59;;;;;;;1.90;1.70;;;12.10;99.90;;;;;;5029764;28;20467;-54
2023/08/28 03:51:25;;;;;;;1.93;1.83;;;12.10;99.90;;;;;;5030447;28;20831;-54
2023/08/28 03:53:52;;;;;;;3.40;2.10;;;12.10;99.90;;;;;;5025288;28;20463;-54
2023/08/28 03:56:18;;;;;;;1.77;1.67;;;12.10;99.90;;;;;;5014547;28;20480;-54
2023/08/28 03:58:47;;;;;;;1.63;1.53;;;12.10;99.90;;;;;;5021890;28;20525;-54
2023/08/28 04:01:14;;;;;;;1.73;1.60;;;12.20;99.90;;;;;;5020803;28;20483;-54
2023/08/28 04:03:40;;;;;;;1.73;1.63;;;12.10;99.90;;;;;;5029609;28;20459;-54
2023/08/28 04:06:08;;;;;;;2.13;2.00;;;12.10;99.90;;;;;;5028825;28;20513;-53
2023/08/28 04:08:35;;;;;;;4.93;1.80;;;12.10;99.90;;;;;;5022933;28;20466;-55
2023/08/28 04:11:01;;;;;;;4.50;1.67;;;12.10;99.90;;;;;;5025855;28;20540;-54
2023/08/28 04:13:28;;;;;;;2.80;1.87;;;12.10;99.90;;;;;;5027371;28;20532;-53
2023/08/28 04:15:56;;;;;;;2.03;1.87;;;12.10;99.90;;;;;;5032307;28;20525;-54
2023/08/28 04:18:23;;;;;;;4.77;2.27;;;12.10;99.90;;;;;;5027183;28;20461;-53
2023/08/28 04:20:49;;;;;;;3.33;1.70;;;12.20;99.90;;;;;;5019021;28;20530;-53
2023/08/28 04:23:17;;;;;;;5.43;2.27;;;12.20;99.90;;;;;;5030613;28;20455;-55
2023/08/28 04:25:44;;;;;;;3.87;2.10;;;12.20;99.90;;;;;;5027704;28;20482;-54
2023/08/28 04:28:10;;;;;;;2.90;2.40;;;12.10;99.90;;;;;;5023019;28;20996;-55
2023/08/28 04:30:37;;;;;;;2.73;1.90;;;12.20;99.90;;;;;;5026389;28;20459;-55
2023/08/28 04:33:05;;;;;;;3.37;2.30;;;12.10;99.90;;;;;;5028112;28;20517;-55
2023/08/28 04:35:32;;;;;;;2.50;1.90;;;12.20;99.90;;;;;;5026934;28;20505;-54
2023/08/28 04:37:58;;;;;;;2.30;2.10;;;12.20;99.90;;;;;;5037032;28;20465;-54
2023/08/28 04:40:25;;;;;;;2.03;1.93;;;12.20;99.90;;;;;;5033668;28;20463;-53
2023/08/28 04:42:52;;;;;;;4.70;2.10;;;12.20;99.90;;;;;;5033817;28;20471;-52
2023/08/28 04:45:18;;;;;;;2.77;2.53;;;12.20;99.90;;;;;;5026108;28;20490;-53
2023/08/28 04:47:45;;;;;;;5.23;2.77;;;12.20;99.90;;;;;;5034682;28;20462;-55
2023/08/28 04:50:13;;;;;;;2.73;2.40;;;12.30;99.90;;;;;;5029798;28;20463;-53
2023/08/28 04:52:39;;;;;;;2.97;2.10;;;12.30;99.90;;;;;;5032047;28;20463;-53
2023/08/28 04:55:06;;;;;;;4.77;2.03;;;12.30;99.90;;;;;;5035538;28;20533;-53
2023/08/28 04:57:33;;;;;;;4.80;2.10;;;12.40;99.90;;;;;;5027205;28;20466;-54
2023/08/28 05:00:00;;;;;;;4.93;2.60;;;12.40;99.90;;;;;;5025674;28;20466;-53
2023/08/28 05:02:26;;;;;;;3.17;1.85;;;12.40;99.90;;;;;;5024859;28;20468;-53
2023/08/28 05:04:53;;;;;;;3.20;2.17;;;12.50;99.90;;;;;;5034435;28;20227;-54
2023/08/28 05:07:22;;;;;;;3.43;2.57;;;12.50;99.90;;;;;;5028895;28;20471;-55
2023/08/28 05:09:49;;;;;;;3.53;2.53;;;12.60;99.90;;;;;;5030280;28;20525;-55
2023/08/28 05:12:15;;;;;;;4.73;2.40;;;12.70;99.90;;;;;;5022812;28;20479;-55
2023/08/28 05:14:42;;;;;;;3.67;2.27;;;12.70;99.90;;;;;;5026052;28;20532;-55
2023/08/28 05:17:08;;;;;;;2.50;2.30;;;12.70;99.90;;;;;;5026114;28;20458;-53
2023/08/28 05:19:35;;;;;;;3.03;2.50;;;12.80;99.90;;;;;;5025008;28;20462;-52
2023/08/28 05:22:02;;;;;;;4.53;2.40;;;12.80;99.90;;;;;;5021688;28;21215;-53
2023/08/28 05:24:30;;;;;;;5.53;2.43;;;12.90;99.90;;;;;;5021785;28;20516;-53
2023/08/28 05:26:57;;;;;;;4.63;2.53;;;12.90;99.90;;;;;;5025046;28;20516;-54
2023/08/28 05:29:23;;;;;;;4.10;2.67;;;13.00;99.90;;;;;;5028596;28;20458;-54
2023/08/28 05:31:50;;;;;;;3.70;2.90;;;13.00;99.90;;;;;;5026816;28;20492;-54
2023/08/28 05:34:16;;;;;;;4.77;2.93;;;13.00;99.90;;;;;;5029505;28;20462;-54
2023/08/28 05:36:43;;;;;;;3.03;2.70;;;13.10;99.90;;;;;;5030057;28;20527;-54
2023/08/28 05:39:09;;;;;;;2.67;2.50;;;13.10;99.90;;;;;;5030170;28;20513;-54
2023/08/28 05:41:37;;;;;;;6.93;3.20;;;13.20;99.90;;;;;;5027869;28;20459;-53
2023/08/28 05:44:04;;;;;;;3.73;2.70;;;13.20;99.90;;;;;;5031562;28;20459;-55
2023/08/28 05:46:31;;;;;;;3.10;2.90;;;13.20;99.90;;;;;;5025909;28;20482;-55
2023/08/28 05:48:57;;;;;;;3.03;2.70;;;13.30;99.90;;;;;;5041486;28;20492;-54
2023/08/28 05:51:24;;;;;;;5.57;3.43;;;13.30;99.90;;;;;;5033223;28;21015;-55
2023/08/28 05:53:51;;;;;;;5.90;3.23;;;13.30;99.90;;;;;;5023589;28;20487;-53
2023/08/28 05:56:17;;;;;;;8.73;3.10;;;13.40;99.90;;;;;;5026857;28;21077;-54
2023/08/28 05:58:45;;;;;;;3.27;2.97;;;13.40;99.90;;;;;;5029275;28;20462;-55
2023/08/28 06:01:12;;;;;;;5.27;2.93;;;13.50;99.90;;;;;;5032950;28;20517;-55
2023/08/28 06:03:38;;;;;;;3.60;3.17;;;13.60;99.90;;;;;;5025415;28;20522;-53
2023/08/28 06:06:05;;;;;;;4.07;3.00;;;13.60;20.30;;;;;;5025756;28;20569;-54
2023/08/28 06:08:32;;;;;;;4.07;3.30;;;13.60;87.60;;;;;;5035369;28;20459;-55
2023/08/28 06:10:58;;;;;;;5.00;3.00;;;13.70;94.10;;;;;;5028821;28;20469;-54
2023/08/28 06:13:25;;;;;;;4.43;3.00;;;13.80;80.50;;;;;;5026458;28;20470;-53
2023/08/28 06:15:53;;;;;;;12.10;3.30;;;13.90;24.30;;;;;;5026138;28;20546;-53
2023/08/28 06:18:20;;;;;;;4.10;3.67;;;13.90;27.00;;;;;;5028339;28;20463;-54
2023/08/28 06:20:46;;;;;;;4.13;2.90;;;13.90;36.00;;;;;;5029287;28;20462;-54
2023/08/28 06:23:14;;;;;;;6.07;2.70;;;14.00;36.40;;;;;;5022859;28;20475;-53
2023/08/28 06:25:40;;;;;;;6.87;3.40;;;14.00;35.30;;;;;;5027153;28;20513;-55
2023/08/28 06:28:07;;;;;;;5.57;3.63;;;13.90;38.60;;;;;;5029011;28;20532;-53
2023/08/28 06:30:34;;;;;;;3.27;2.93;;;14.00;34.30;;;;;;5037279;28;20463;-54
2023/08/28 06:33:02;;;;;;;3.57;3.23;;;14.00;31.50;;;;;;5046320;28;21012;-54
2023/08/28 06:35:28;;;;;;;7.90;3.00;;;14.00;29.00;;;;;;5038258;28;20474;-53
2023/08/28 06:37:55;;;;;;;12.40;3.43;;;14.10;27.90;;;;;;5047458;28;20439;-53
2023/08/28 06:40:22;;;;;;;4.20;3.07;;;14.20;33.60;;;;;;5030512;28;20463;-55
2023/08/28 06:42:48;;;;;;;4.17;2.67;;;14.30;38.70;;;;;;5024467;28;20455;-55
2023/08/28 06:45:15;;;;;;;4.33;2.97;;;14.30;39.60;;;;;;5034220;28;20494;-55
2023/08/28 06:47:41;;;;;;;13.00;3.93;;;14.30;42.90;;;;;;5033359;28;20959;-55
2023/08/28 06:50:10;;;;;;;5.70;3.33;;;14.30;45.20;;;;;;5033969;28;20531;-54
2023/08/28 06:52:37;;;;;;;3.90;2.50;;;14.30;43.10;;;;;;5027410;28;20470;-55
2023/08/28 06:55:04;;;;;;;6.70;3.27;;;14.40;41.00;;;;;;5034516;28;20898;-54
2023/08/28 06:57:31;;;;;;;6.50;3.10;;;14.50;42.70;;;;;;5024674;28;20468;-51
2023/08/28 06:59:57;;;;;;;6.50;2.87;;;14.50;43.20;;;;;;5031683;28;20455;-51
2023/08/28 07:02:24;;;;;;;43.70;5.40;;;14.60;43.30;;;;;;5026583;28;20463;-51
2023/08/28 07:04:51;;;;;;;6.30;3.07;;;14.60;47.00;;;;;;5025926;28;20467;-50
2023/08/28 07:07:18;;;;;;;4.27;3.00;;;14.60;51.40;;;;;;5029693;28;20472;-51
2023/08/28 07:09:45;;;;;;;17.47;3.43;;;14.60;48.60;;;;;;5026037;28;20462;-51
2023/08/28 07:12:12;;;;;;;46.27;5.73;;;14.60;50.50;;;;;;5031889;28;20493;-51
2023/08/28 07:14:38;;;;;;;5.90;2.50;;;14.80;47.30;;;;;;5031819;28;20458;-51
2023/08/28 07:17:05;;;;;;;25.83;3.90;;;14.90;54.80;;;;;;5030373;28;20478;-51
2023/08/28 07:19:32;;;;;;;2.97;2.20;;;15.00;63.60;;;;;;5026681;28;20513;-51
2023/08/28 07:22:00;;;;;;;22.47;3.07;;;15.10;58.70;;;;;;5028692;28;20459;-51
2023/08/28 07:24:28;;;;;;;6.73;2.67;;;15.20;59.20;;;;;;5028695;28;20454;-51
2023/08/28 07:26:54;;;;;;;5.17;2.13;;;15.30;66.70;;;;;;5025218;28;20911;-51
2023/08/28 07:29:21;;;;;;;3.27;1.87;;;15.20;73.70;;;;;;5027299;28;20467;-51
2023/08/28 07:31:48;;;;;;;4.63;2.37;;;15.40;69.20;;;;;;5034380;28;20968;-51
2023/08/28 07:34:14;;;;;;;4.00;2.13;;;15.40;79.50;;;;;;5022759;28;20467;-51
2023/08/28 07:36:43;;;;;;;2.57;1.80;;;15.40;78.40;;;;;;5027186;28;20482;-51
2023/08/28 07:39:10;;;;;;;8.13;2.27;;;15.40;79.40;;;;;;5019919;28;20459;-51
2023/08/28 07:41:38;;;;;;;5.27;2.33;;;15.40;75.60;;;;;;5029310;28;20949;-51
2023/08/28 07:44:05;;;;;;;5.83;1.90;;;15.40;71.00;;;;;;5034558;28;20459;-52
2023/08/28 07:46:31;;;;;;;3.00;1.70;;;15.50;71.40;;;;;;5029198;28;20487;-51
2023/08/28 07:48:58;;;;;;;4.17;1.53;;;15.50;71.40;;;;;;5029633;28;20469;-51
2023/08/28 07:51:25;;;;;;;6.70;2.30;;;15.50;69.70;;;;;;5022218;28;20547;-51
2023/08/28 07:53:51;;;;;;;3.03;2.00;;;15.60;73.70;;;;;;5027610;28;20520;-51
2023/08/28 07:56:18;;;;;;;2.80;2.00;;;15.70;71.80;;;;;;5021779;28;20514;-51
2023/08/28 07:58:46;;;;;;;4.53;1.53;;;15.70;71.80;;;;;;5033649;28;20458;-51
2023/08/28 08:01:12;;;;;;;3.13;1.77;;;15.90;78.20;;;;;;5028130;28;20832;-51
2023/08/28 08:03:39;;;;;;;5.13;1.80;;;15.80;90.20;;;;;;5033245;28;20450;-51
2023/08/28 08:06:07;;;;;;;4.37;2.37;;;15.70;89.90;;;;;;5025812;28;20906;-52
2023/08/28 08:08:34;;;;;;;6.53;1.90;;;15.90;91.50;;;;;;5034532;28;20815;-51
2023/08/28 08:11:01;;;;;;;7.73;2.20;;;16.00;87.40;;;;;;5037761;28;20900;-52
2023/08/28 08:13:28;;;;;;;2.10;1.43;;;16.10;99.90;;;;;;5024735;28;20455;-52
2023/08/28 08:15:56;;;;;;;2.60;1.60;;;16.20;99.90;;;;;;5026994;28;20983;-53
2023/08/28 08:18:22;;;;;;;6.77;1.83;;;16.30;99.90;;;;;;5038622;28;20458;-52
2023/08/28 08:20:50;;;;;;;1.90;1.70;;;16.30;99.90;;;;;;5026417;28;20463;-52
2023/08/28 08:23:16;;;;;;;12.50;1.60;;;16.40;99.90;;;;;;5028125;28;20467;-52
2023/08/28 08:25:43;;;;;;;3.43;1.60;;;16.50;99.90;;;;;;5028011;28;20920;-51
2023/08/28 08:28:10;;;;;;;2.80;2.03;;;16.50;99.90;;;;;;5030428;28;20935;-50
2023/08/28 08:30:36;;;;;;;2.73;1.70;;;16.50;99.90;;;;;;5023705;28;20860;-51
2023/08/28 08:33:05;;;;;;;2.20;1.53;;;16.50;99.90;;;;;;5029224;28;20471;-51
2023/08/28 08:35:31;;;;;;;5.00;2.00;;;16.50;99.90;;;;;;5029169;28;20494;-55
2023/08/28 08:37:58;;;;;;;2.70;1.30;;;16.60;99.90;;;;;;5030441;28;20455;-51
2023/08/28 08:40:26;;;;;;;10.23;1.60;;;16.70;99.90;;;;;;5027820;28;20512;-51
2023/08/28 08:42:53;;;;;;;4.97;1.63;;;16.70;99.90;;;;;;5040243;28;20468;-51
2023/08/28 08:45:21;;;;;;;2.30;1.40;;;16.70;99.90;;;;;;5017450;28;20471;-51
2023/08/28 08:47:51;;;;;;;1.97;1.37;;;16.70;99.90;;;;;;5030204;28;20509;-51
2023/08/28 08:50:20;;;;;;;9.00;1.47;;;16.70;99.90;;;;;;5031143;28;20450;-51
2023/08/28 08:52:48;;;;;;;14.90;1.60;;;16.70;99.90;;;;;;5018117;28;20498;-51
2023/08/28 08:55:23;;;;;;;5.47;1.83;;;16.60;99.90;;;;;;5033369;28;20493;-51
2023/08/28 08:57:53;;;;;;;4.50;2.23;;;16.70;99.90;;;;;;5031039;28;20500;-50
2023/08/28 09:00:20;;;;;;;5.63;1.23;;;16.70;99.90;;;;;;5027895;28;20459;-51
2023/08/28 09:02:48;;;;;;;3.77;1.30;;;16.70;99.90;;;;;;5018051;28;20902;-51
2023/08/28 09:05:16;;;;;;;2.30;1.57;;;16.70;99.90;;;;;;5024923;28;20513;-51
2023/08/28 09:07:44;;;;;;;5.00;1.50;;;16.60;99.90;;;;;;5028469;28;20486;-50
2023/08/28 09:10:12;;;;;;;1.73;1.43;;;16.60;99.90;;;;;;5026880;28;20446;-51
2023/08/28 09:12:39;;;;;;;5.40;1.40;;;16.60;99.90;;;;;;5029155;28;20894;-52
2023/08/28 09:15:07;;;;;;;6.33;1.20;;;16.50;99.90;;;;;;5027568;28;20529;-51
2023/08/28 09:17:38;;;;;;;2.47;1.40;;;16.50;99.90;;;;;;5042313;28;20814;-51
2023/08/28 09:20:16;;;;;;;4.63;1.23;;;16.50;99.90;;;;;;5027363;28;20458;-52
2023/08/28 09:22:48;;;;;;;3.17;1.50;;;16.50;99.90;;;;;;5030026;28;20553;-51
2023/08/28 09:25:16;;;;;;;10.40;1.27;;;16.60;99.90;;;;;;5031287;28;21000;-52
2023/08/28 09:27:44;;;;;;;4.07;2.10;;;16.70;99.90;;;;;;5026561;28;20478;-51
2023/08/28 09:30:26;;;;;;;7.63;1.70;;;16.60;99.90;;;;;;5024043;28;20463;-52
2023/08/28 09:32:52;;;;;;;4.40;1.30;;;16.60;99.90;;;;;;5029654;28;20513;-51
2023/08/28 09:35:20;;;;;;;5.57;1.53;;;16.60;99.90;;;;;;5029714;28;21081;-50
2023/08/28 09:37:56;;;;;;;2.57;1.47;;;16.70;99.90;;;;;;5023322;28;21004;-51
2023/08/28 09:40:27;;;;;;;3.20;1.30;;;16.70;99.90;;;;;;5022755;28;20459;-51
2023/08/28 09:42:53;;;;;;;5.30;1.20;;;16.70;99.90;;;;;;5024311;28;20470;-51
2023/08/28 09:45:20;;;;;;;8.83;1.83;;;16.70;99.90;;;;;;5027090;28;20543;-52
2023/08/28 09:47:52;;;;;;;11.20;1.40;;;16.80;99.90;;;;;;5034175;28;20471;-52
2023/08/28 09:50:23;;;;;;;5.30;1.20;;;16.90;99.90;;;;;;5033534;28;20841;-52
2023/08/28 09:52:51;;;;;;;3.43;1.23;;;17.00;99.90;;;;;;5016725;28;20544;-52
2023/08/28 09:55:19;;;;;;;4.47;1.60;;;17.10;99.90;;;;;;5024958;28;20490;-52
2023/08/28 09:57:46;;;;;;;2.43;1.30;;;17.20;99.90;;;;;;5034661;28;20438;-53
2023/08/28 10:00:13;;;;;;;3.23;1.37;;;17.20;99.90;;;;;;5034053;28;21000;-52
2023/08/28 10:02:40;;;;;;;2.30;1.30;;;17.30;99.90;;;;;;5037469;28;20466;-52
2023/08/28 10:05:08;;;;;;;2.57;1.27;;;17.40;99.90;;;;;;5053197;28;20458;-52
2023/08/28 10:07:38;;;;;;;1.60;1.50;;;17.30;99.90;;;;;;5038530;28;20485;-53
2023/08/28 10:10:10;;;;;;;3.43;1.30;;;17.50;99.90;;;;;;5027447;28;20525;-51
2023/08/28 10:12:39;;;;;;;6.07;1.50;;;17.50;99.90;;;;;;5029256;28;20602;-52
2023/08/28 10:15:07;;;;;;;4.70;1.30;;;17.50;99.90;;;;;;5051913;28;20523;-52
2023/08/28 10:17:35;;;;;;;1.97;1.33;;;17.50;99.90;;;;;;5043237;28;20516;-52
2023/08/28 10:20:04;;;;;;;4.00;1.00;;;17.50;99.90;;;;;;5041678;28;20986;-52
2023/08/28 10:22:33;;;;;;;5.33;1.60;;;17.60;99.90;;;;;;5032415;28;20489;-52
2023/08/28 10:25:01;;;;;;;3.50;1.13;;;17.60;99.90;;;;;;5031405;28;20601;-52
2023/08/28 10:27:30;;;;;;;3.33;1.43;;;17.70;99.90;;;;;;5022393;28;20479;-52
2023/08/28 10:29:58;;;;;;;7.97;1.60;;;17.70;99.90;;;;;;5030784;28;21544;-52
2023/08/28 10:32:26;;;;;;;2.37;1.23;;;17.70;99.90;;;;;;5028354;28;20444;-54
2023/08/28 10:34:54;;;;;;;2.63;1.50;;;17.80;99.90;;;;;;5030394;28;20505;-51
2023/08/28 10:37:20;;;;;;;1.97;1.40;;;17.70;99.90;;;;;;5024305;28;20456;-52
2023/08/28 10:39:48;;;;;;;5.13;1.40;;;17.80;99.90;;;;;;5023045;28;20518;-52
2023/08/28 10:42:20;;;;;;;1.63;1.10;;;17.80;99.90;;;;;;5030249;28;20471;-52
2023/08/28 10:44:48;;;;;;;5.87;1.30;;;17.90;99.90;;;;;;5024494;28;20455;-51
2023/08/28 10:47:16;;;;;;;3.83;1.03;;;18.30;99.90;;;;;;5033194;28;20486;-52
2023/08/28 10:49:42;;;;;;;4.43;1.20;;;18.60;99.90;;;;;;5028794;28;20459;-52
2023/08/28 10:52:11;;;;;;;15.00;1.60;;;18.80;99.90;;;;;;5026557;28;20556;-51
2023/08/28 10:54:38;;;;;;;1.20;1.10;;;18.70;99.90;;;;;;5032228;28;20457;-52
2023/08/28 10:57:10;;;;;;;8.37;1.60;;;18.90;99.90;;;;;;5030728;28;20479;-51
2023/08/28 10:59:44;;;;;;;6.77;1.50;;;19.20;99.90;;;;;;5027791;28;20968;-53
2023/08/28 11:02:12;;;;;;;1.27;1.00;;;19.50;99.90;;;;;;5045037;28;20462;-51
2023/08/28 11:04:40;;;;;;;2.93;1.10;;;19.40;79.80;;;;;;5032242;28;20517;-51
2023/08/28 11:07:30;;;;;;;1.90;1.17;;;19.20;40.50;;;;;;5032285;28;20995;-52
2023/08/28 11:10:16;;;;;;;2.93;1.20;;;19.00;30.30;;;;;;5023970;28;20466;-53
2023/08/28 11:12:51;;;;;;;6.17;1.30;;;18.70;30.30;;;;;;5021601;28;20465;-51
2023/08/28 11:15:27;;;;;;;3.47;1.53;;;18.50;99.90;;;;;;5018407;28;20571;-54
2023/08/28 11:18:19;;;;;;;2.00;1.20;;;18.40;20.00;;;;;;5030822;28;20457;-51
2023/08/28 11:20:47;;;;;;;2.10;1.00;;;18.20;24.30;;;;;;5028496;28;20874;-52
2023/08/28 11:23:21;;;;;;;2.97;1.67;;;18.20;93.70;;;;;;5024922;28;20442;-51
2023/08/28 11:25:48;;;;;;;4.00;1.67;;;18.20;92.90;;;;;;5028778;28;20479;-52
2023/08/28 11:28:31;;;;;;;3.43;1.57;;;18.30;97.60;;;;;;5023900;28;20544;-52
2023/08/28 11:31:02;;;;;;;5.07;1.40;;;18.40;23.00;;;;;;5033983;28;20443;-52
2023/08/28 11:33:38;;;;;;;4.07;1.10;;;18.50;23.30;;;;;;5024448;28;20466;-52
2023/08/28 11:36:06;;;;;;;3.27;1.10;;;18.60;47.40;;;;;;5031108;28;20554;-52
2023/08/28 11:38:33;;;;;;;2.70;1.20;;;18.60;45.80;;;;;;5030829;28;20485;-52
2023/08/28 11:41:04;;;;;;;2.43;1.53;;;18.80;47.10;;;;;;5021708;28;20455;-52
2023/08/28 11:43:34;;;;;;;2.40;1.10;;;18.80;38.20;;;;;;5027197;28;20442;-53
2023/08/28 11:46:01;;;;;;;6.33;1.10;;;18.80;56.80;;;;;;5027280;28;20486;-53
2023/08/28 11:48:33;;;;;;;10.03;1.40;;;18.80;62.20;;;;;;5026580;28;21188;-52
2023/08/28 11:51:03;;;;;;;6.83;1.20;;;18.70;53.00;;;;;;5023751;28;20451;-52
2023/08/28 11:53:31;;;;;;;4.57;1.20;;;18.80;52.80;;;;;;5040103;28;20574;-52
2023/08/28 11:56:00;;;;;;;4.53;1.60;;;18.80;66.40;;;;;;5040552;28;20535;-52
2023/08/28 11:58:27;;;;;;;2.80;1.07;;;18.90;57.20;;;;;;5043790;28;20438;-52
2023/08/28 12:00:54;;;;;;;4.93;1.30;;;19.10;59.40;;;;;;5040166;28;20455;-53
2023/08/28 12:03:21;;;;;;;2.10;1.27;;;19.40;68.50;;;;;;5033368;28;20514;-53
2023/08/28 12:05:47;;;;;;;1.90;1.10;;;19.90;77.80;;;;;;5045411;28;20508;-51
2023/08/28 12:08:16;;;;;;;3.17;1.10;;;19.60;97.60;;;;;;5033947;28;20966;-52
2023/08/28 12:10:44;;;;;;;1.57;1.03;;;19.50;92.70;;;;;;5030897;28;20490;-51
2023/08/28 12:13:10;;;;;;;8.43;1.30;;;19.40;86.30;;;;;;5032098;28;20453;-50
2023/08/28 12:15:37;;;;;;;2.60;1.00;;;19.30;88.50;;;;;;5031350;28;20459;-51
2023/08/28 12:18:06;;;;;;;4.20;1.00;;;19.20;87.70;;;;;;5028230;28;20921;-52
2023/08/28 12:20:34;;;;;;;21.40;1.70;;;19.20;83.50;;;;;;5017575;28;20948;-52
2023/08/28 12:23:00;;;;;;;2.83;0.90;;;19.30;74.40;;;;;;5033482;28;20979;-51
2023/08/28 12:25:34;;;;;;;8.67;1.40;;;19.40;81.30;;;;;;5027493;28;20474;-53
2023/08/28 12:28:06;;;;;;;2.50;1.10;;;19.30;89.50;;;;;;5027793;28;20477;-53
2023/08/28 12:30:32;;;;;;;3.10;1.10;;;19.30;83.40;;;;;;5029584;28;20969;-51
2023/08/28 12:33:00;;;;;;;1.67;0.97;;;19.10;80.80;;;;;;5016786;28;20477;-53
2023/08/28 12:35:27;;;;;;;1.83;1.00;;;19.10;81.30;;;;;;5018751;28;20487;-51
2023/08/28 12:37:54;;;;;;;1.40;0.80;;;19.20;80.60;;;;;;5022384;28;20438;-51
2023/08/28 12:40:21;;;;;;;3.40;1.63;;;19.20;80.00;;;;;;5027137;28;20467;-51
2023/08/28 12:42:58;;;;;;;9.17;1.47;;;19.40;80.60;;;;;;5016482;28;20522;-51
2023/08/28 12:45:25;;;;;;;7.70;1.20;;;19.60;78.10;;;;;;5015615;28;20497;-51
2023/08/28 12:47:52;;;;;;;6.93;1.20;;;19.80;88.30;;;;;;5020370;28;21043;-51
2023/08/28 12:50:18;;;;;;;1.20;0.77;;;19.80;85.60;;;;;;5014044;28;20462;-53